Time;durP1;ratioP1;P1;durP2;ratioP2;P2;SDS_P1;SDS_P2;PMS_P1;PMS_P2;Temp;Humidity;BMP_temperature;BMP_pressure;BME280_temperature;BME280_humidity;BME280_pressure;Samples;Min_cycle;Max_cycle;Signal;HPM_P1;HPM_P2
2022/12/04 00:02:09;;;;;;;32.03;19.10;;;;;;;;;;21004073;28;20136;-61
2022/12/04 00:12:11;;;;;;;26.42;16.10;;;;;;;;;;21002595;28;20477;-62
2022/12/04 00:22:13;;;;;;;28.08;15.27;;;;;;;;;;21002316;28;20048;-60
2022/12/04 00:32:15;;;;;;;30.80;16.77;;;;;;;;;;21000468;28;20049;-60
2022/12/04 00:42:17;;;;;;;25.23;14.77;;;;;;;;;;20999532;28;20113;-61
2022/12/04 00:52:19;;;;;;;27.60;15.88;;;;;;;;;;20981130;28;20064;-59
2022/12/04 01:02:21;;;;;;;25.77;14.93;;;;;;;;;;20999078;28;20048;-60
2022/12/04 01:12:23;;;;;;;25.60;15.27;;;;;;;;;;20998383;28;20059;-59
2022/12/04 01:22:27;;;;;;;23.83;15.30;;;;;;;;;;20979468;28;20044;-62
2022/12/04 01:32:31;;;;;;;23.73;14.32;;;;;;;;;;20996295;28;20057;-61
2022/12/04 01:42:34;;;;;;;25.80;14.82;;;;;;;;;;20995505;28;20044;-61
2022/12/04 01:52:38;;;;;;;22.92;13.48;;;;;;;;;;20996616;28;20056;-61
2022/12/04 02:02:42;;;;;;;22.50;14.27;;;;;;;;;;20995410;28;20044;-64
2022/12/04 02:12:47;;;;;;;25.40;15.57;;;;;;;;;;20995066;28;20405;-60
2022/12/04 02:23:03;;;;;;;25.67;14.20;;;;;;;;;;20994522;28;20087;-62
2022/12/04 02:33:23;;;;;;;23.90;13.52;;;;;;;;;;20993171;28;20060;-61
2022/12/04 02:43:29;;;;;;;22.85;12.63;;;;;;;;;;20993666;28;20480;-61
2022/12/04 02:53:36;;;;;;;22.10;12.30;;;;;;;;;;20999837;28;20416;-60
2022/12/04 03:03:41;;;;;;;18.33;11.48;;;;;;;;;;21007887;28;20041;-61
2022/12/04 03:14:20;;;;;;;19.00;11.52;;;;;;;;;;21007839;28;20163;-59
2022/12/04 03:24:40;;;;;;;21.70;12.70;;;;;;;;;;21006190;28;20139;-59
2022/12/04 03:34:51;;;;;;;19.23;11.88;;;;;;;;;;21005105;28;20063;-61
2022/12/04 03:45:03;;;;;;;23.08;12.65;;;;;;;;;;21004465;28;20044;-62
2022/12/04 03:55:17;;;;;;;18.80;11.38;;;;;;;;;;21003808;28;20091;-60
2022/12/04 04:05:20;;;;;;;16.63;10.73;;;;;;;;;;21001851;28;20080;-62
2022/12/04 04:25:47;;;;;;;19.15;10.55;;;;;;;;;;21000534;28;20063;-61
2022/12/04 04:35:54;;;;;;;16.42;9.85;;;;;;;;;;20999997;28;20044;-64
2022/12/04 04:46:13;;;;;;;19.13;10.30;;;;;;;;;;20999491;28;20045;-63
2022/12/04 04:56:15;;;;;;;16.23;10.65;;;;;;;;;;21000111;28;20048;-59
2022/12/04 05:06:16;;;;;;;17.63;9.98;;;;;;;;;;20981112;28;20196;-61
2022/12/04 05:16:18;;;;;;;13.70;8.68;;;;;;;;;;20997215;28;20055;-59
2022/12/04 05:26:20;;;;;;;16.35;9.07;;;;;;;;;;20996754;28;20051;-59
2022/12/04 05:36:22;;;;;;;14.30;8.73;;;;;;;;;;20996641;28;20052;-58
2022/12/04 05:46:23;;;;;;;17.50;10.10;;;;;;;;;;20996349;28;20094;-58
2022/12/04 05:56:25;;;;;;;16.25;9.02;;;;;;;;;;20996205;28;20122;-57
2022/12/04 06:06:27;;;;;;;15.90;8.95;;;;;;;;;;20995421;28;20044;-58
2022/12/04 06:16:33;;;;;;;12.40;7.90;;;;;;;;;;20994764;28;20067;-57
2022/12/04 06:26:35;;;;;;;13.38;7.97;;;;;;;;;;20999512;28;20524;-57
2022/12/04 06:36:36;;;;;;;12.07;8.10;;;;;;;;;;21010234;28;20056;-58
2022/12/04 06:46:38;;;;;;;16.23;7.78;;;;;;;;;;21010247;28;20060;-60
2022/12/04 06:56:40;;;;;;;12.32;8.02;;;;;;;;;;21008891;28;20527;-60
2022/12/04 07:06:42;;;;;;;15.45;8.43;;;;;;;;;;21008097;28;20060;-59
2022/12/04 07:16:45;;;;;;;12.73;7.60;;;;;;;;;;21007929;28;20550;-61
2022/12/04 07:26:47;;;;;;;13.35;8.35;;;;;;;;;;21007294;28;20561;-64
2022/12/04 07:36:50;;;;;;;13.18;7.70;;;;;;;;;;21005370;28;20055;-60
2022/12/04 07:46:53;;;;;;;14.43;8.00;;;;;;;;;;21005386;28;20119;-61
2022/12/04 07:56:55;;;;;;;13.93;7.40;;;;;;;;;;21005403;28;20106;-63
2022/12/04 08:06:56;;;;;;;12.95;7.72;;;;;;;;;;21003852;28;20127;-60
2022/12/04 08:16:58;;;;;;;15.25;7.97;;;;;;;;;;21003819;28;20113;-61
2022/12/04 08:27:00;;;;;;;14.27;7.70;;;;;;;;;;21001650;28;20443;-59
2022/12/04 08:37:02;;;;;;;13.43;8.65;;;;;;;;;;21001433;28;20045;-60
2022/12/04 08:47:03;;;;;;;12.13;6.78;;;;;;;;;;21000982;28;20041;-58
2022/12/04 08:57:05;;;;;;;14.30;7.78;;;;;;;;;;20999357;28;20512;-59
2022/12/04 09:07:07;;;;;;;10.95;6.50;;;;;;;;;;20999332;28;20449;-59
2022/12/04 09:17:09;;;;;;;11.38;5.68;;;;;;;;;;20997598;28;20464;-60
2022/12/04 09:27:11;;;;;;;11.65;6.95;;;;;;;;;;20997283;28;20049;-60
2022/12/04 09:37:14;;;;;;;11.38;7.03;;;;;;;;;;20996304;28;20053;-61
2022/12/04 09:47:22;;;;;;;15.77;6.95;;;;;;;;;;20996245;28;20052;-60
2022/12/04 09:57:38;;;;;;;12.67;6.83;;;;;;;;;;20995948;28;20044;-60
2022/12/04 10:07:56;;;;;;;14.07;7.40;;;;;;;;;;20995000;28;20293;-61
2022/12/04 10:18:00;;;;;;;16.23;8.50;;;;;;;;;;20978222;28;20079;-60
2022/12/04 10:28:11;;;;;;;13.80;8.00;;;;;;;;;;20993980;28;20075;-60
2022/12/04 10:38:32;;;;;;;14.75;8.32;;;;;;;;;;20993202;28;20056;-60
2022/12/04 10:48:38;;;;;;;20.13;9.35;;;;;;;;;;20993145;28;20416;-60
2022/12/04 10:58:41;;;;;;;15.98;8.95;;;;;;;;;;20990958;28;20044;-61
2022/12/04 11:08:49;;;;;;;18.02;9.73;;;;;;;;;;20990791;28;20040;-60
2022/12/04 11:18:51;;;;;;;19.15;8.93;;;;;;;;;;21002731;28;20052;-63
2022/12/04 11:28:55;;;;;;;22.05;10.30;;;;;;;;;;21005991;28;20056;-60
2022/12/04 11:39:10;;;;;;;23.98;10.60;;;;;;;;;;21004027;28;20049;-61
2022/12/04 11:49:20;;;;;;;22.45;9.88;;;;;;;;;;21004212;28;20052;-62
2022/12/04 11:59:43;;;;;;;25.23;11.50;;;;;;;;;;21002720;28;20455;-61
2022/12/04 12:09:59;;;;;;;26.30;11.38;;;;;;;;;;21002837;28;20504;-62
2022/12/04 12:20:08;;;;;;;30.30;12.07;;;;;;;;;;21003493;28;20044;-60
2022/12/04 12:30:20;;;;;;;24.25;11.05;;;;;;;;;;21000747;28;20072;-65
2022/12/04 12:40:26;;;;;;;27.05;12.45;;;;;;;;;;21002246;28;20048;-66
2022/12/04 12:50:32;;;;;;;26.48;12.48;;;;;;;;;;21001622;28;20048;-66
2022/12/04 13:00:38;;;;;;;28.50;12.80;;;;;;;;;;21000178;28;20138;-65
2022/12/04 13:10:52;;;;;;;28.20;12.93;;;;;;;;;;21000174;28;20496;-65
2022/12/04 13:20:57;;;;;;;25.27;12.30;;;;;;;;;;20999347;28;20165;-66
2022/12/04 13:31:10;;;;;;;25.95;12.52;;;;;;;;;;20997647;28;20167;-67
2022/12/04 13:41:20;;;;;;;27.58;12.52;;;;;;;;;;20996798;28;20044;-59
2022/12/04 13:51:34;;;;;;;24.00;12.60;;;;;;;;;;20995704;28;20052;-60
2022/12/04 14:01:38;;;;;;;28.65;14.52;;;;;;;;;;20996153;28;20142;-64
2022/12/04 14:11:44;;;;;;;31.88;13.65;;;;;;;;;;20994984;28;20131;-62
2022/12/04 14:21:46;;;;;;;28.70;13.40;;;;;;;;;;20994525;28;20048;-61
2022/12/04 14:31:49;;;;;;;26.45;13.32;;;;;;;;;;20993601;28;20053;-60
2022/12/04 14:41:52;;;;;;;27.55;14.10;;;;;;;;;;20994176;28;20144;-64
2022/12/04 14:51:59;;;;;;;27.63;13.90;;;;;;;;;;21004602;28;20056;-65
2022/12/04 15:02:01;;;;;;;29.77;14.85;;;;;;;;;;21009406;28;20400;-62
2022/12/04 15:12:33;;;;;;;21.50;12.52;;;;;;;;;;21007733;28;20083;-61
2022/12/04 15:22:35;;;;;;;26.40;12.98;;;;;;;;;;21007668;28;20502;-62
2022/12/04 15:32:36;;;;;;;28.52;12.80;;;;;;;;;;21005760;28;20052;-62
2022/12/04 15:42:38;;;;;;;21.83;11.48;;;;;;;;;;21005028;28;20052;-66
2022/12/04 15:52:48;;;;;;;24.73;12.93;;;;;;;;;;21005162;28;20094;-61
2022/12/04 16:02:50;;;;;;;20.48;11.40;;;;;;;;;;21003179;28;20071;-64
2022/12/04 16:12:53;;;;;;;21.40;11.43;;;;;;;;;;21002961;28;20071;-64
2022/12/04 16:22:55;;;;;;;26.58;13.35;;;;;;;;;;21002658;28;20435;-61
2022/12/04 16:32:57;;;;;;;21.02;11.10;;;;;;;;;;20999713;28;20069;-59
2022/12/04 16:42:59;;;;;;;24.60;11.07;;;;;;;;;;20999321;28;20048;-62
2022/12/04 16:53:01;;;;;;;22.73;11.02;;;;;;;;;;20999136;28;20052;-65
2022/12/04 17:03:05;;;;;;;20.20;10.40;;;;;;;;;;20997539;28;20048;-64
2022/12/04 17:13:06;;;;;;;18.48;10.85;;;;;;;;;;20996197;28;20096;-65
2022/12/04 17:23:09;;;;;;;20.65;10.57;;;;;;;;;;20995729;28;20045;-66
2022/12/04 17:33:11;;;;;;;21.38;11.68;;;;;;;;;;20995667;28;20134;-60
2022/12/04 17:43:13;;;;;;;29.52;13.73;;;;;;;;;;20994839;28;20048;-64
2022/12/04 17:53:15;;;;;;;25.10;14.13;;;;;;;;;;20995541;28;20086;-60
2022/12/04 18:03:17;;;;;;;27.45;14.98;;;;;;;;;;20995003;28;20052;-60
2022/12/04 18:13:19;;;;;;;23.95;13.32;;;;;;;;;;20994656;28;20412;-61
2022/12/04 18:23:21;;;;;;;26.65;15.30;;;;;;;;;;20981511;28;20047;-62
2022/12/04 18:33:23;;;;;;;25.52;14.63;;;;;;;;;;21008782;28;20056;-65
2022/12/04 18:43:25;;;;;;;28.08;15.40;;;;;;;;;;21009390;28;20067;-63
2022/12/04 18:53:27;;;;;;;28.55;16.08;;;;;;;;;;21008407;28;20431;-58
2022/12/04 19:03:29;;;;;;;26.73;15.20;;;;;;;;;;21007870;28;20052;-58
2022/12/04 19:13:31;;;;;;;32.72;19.00;;;;;;;;;;21008356;28;20080;-63
2022/12/04 19:23:33;;;;;;;27.08;16.15;;;;;;;;;;21006605;28;20048;-60
2022/12/04 19:33:36;;;;;;;30.15;16.63;;;;;;;;;;21002703;28;20048;-60
2022/12/04 19:43:39;;;;;;;30.00;17.27;;;;;;;;;;21004098;28;20053;-63
2022/12/04 19:53:42;;;;;;;28.10;15.90;;;;;;;;;;21003365;28;20045;-64
2022/12/04 20:03:44;;;;;;;30.13;16.73;;;;;;;;;;21003440;28;20408;-60
2022/12/04 20:13:46;;;;;;;29.92;16.95;;;;;;;;;;21003691;28;20492;-61
2022/12/04 20:23:49;;;;;;;31.02;17.65;;;;;;;;;;21001127;28;20056;-62
2022/12/04 20:33:52;;;;;;;30.98;18.55;;;;;;;;;;20999791;28;20057;-61
2022/12/04 20:43:54;;;;;;;33.35;18.85;;;;;;;;;;21000477;28;20048;-62
2022/12/04 20:53:57;;;;;;;33.65;18.77;;;;;;;;;;21000256;28;20070;-62
2022/12/04 21:03:59;;;;;;;34.88;19.52;;;;;;;;;;20998299;28;20052;-61
2022/12/04 21:24:29;;;;;;;36.55;19.90;;;;;;;;;;20998833;28;20063;-61
2022/12/04 21:34:32;;;;;;;38.20;20.02;;;;;;;;;;20996642;28;20519;-62
2022/12/04 21:44:34;;;;;;;33.05;18.42;;;;;;;;;;20996983;28;20070;-62
2022/12/04 21:54:36;;;;;;;34.58;19.05;;;;;;;;;;20996150;28;20067;-61
2022/12/04 22:04:39;;;;;;;33.63;18.80;;;;;;;;;;20995752;28;20052;-63
2022/12/04 22:14:46;;;;;;;37.00;18.13;;;;;;;;;;20996005;28;20533;-60
2022/12/04 22:24:52;;;;;;;35.40;19.83;;;;;;;;;;20995124;28;20044;-60
2022/12/04 22:34:55;;;;;;;36.60;19.92;;;;;;;;;;20994383;28;20061;-62
2022/12/04 22:45:00;;;;;;;37.05;20.45;;;;;;;;;;20995057;28;20053;-60
2022/12/04 22:55:06;;;;;;;39.63;21.20;;;;;;;;;;20994099;28;20056;-60
2022/12/04 23:05:09;;;;;;;38.55;21.63;;;;;;;;;;20993844;28;20048;-61
2022/12/04 23:15:13;;;;;;;34.78;20.08;;;;;;;;;;21007432;28;20489;-61
2022/12/04 23:25:18;;;;;;;38.50;21.40;;;;;;;;;;21006825;28;20052;-61
2022/12/04 23:35:22;;;;;;;40.78;22.42;;;;;;;;;;21005727;28;20064;-60
2022/12/04 23:45:25;;;;;;;44.45;23.20;;;;;;;;;;21005547;28;20489;-60
2022/12/04 23:55:27;;;;;;;37.97;21.08;;;;;;;;;;21005152;28;20932;-60
